Forside
METAR-TAF:

METAR-TAF

Lufthavne :

Marshfield Municipal Airport

Marshfield, Wisconsin, USA

Breddekreds: 44-38-17N, længdekreds: 090-11-15W, højde: 389 m

Aktuelle vejr

Denne rapport blev lavet for 12 minutter siden, kl. 11:54 UTC
Vind 10 kt fra østsydøst
Temperatur -1°C
Fugtighed 86%
Tryk 1020 hPa
Sigt: 12.9 km
Spredte skyer i en højde af 2300 ft
Overskyet i en højde af 8000 ft

METAR: KMFI 241154Z AUTO 12010KT 8SM SCT023 OVC080 M01/M03 A3013 RMK AO2 SLP219 T10061028 11006 21044 56019

Tid: 06:06 (12:06 UTC)


TAF: fraværende

Vejrobservationer og prognoser fra mere end 4000 lufthavne (METAR og TAF).

De gule og røde prikker repræsenterer de meteorologiske stationer.

Flyt musen over at se navnet på stationen.

Så klik over at se vejr observationer og prognoser.

At skifte det kort: Klik på de grønne knapper med et sort kors for at zoome ind; på den grønne knap med en bindestreg for at zoome ud; eller på de grønne pile for tilstødende kort.


METAR-TAF: